Mae Sariang, Thailand
Current Conditions -  °F | °C
As of 7:30 PM on Saturday 25 Oct 2014 (Local Time) from VTCC Reporting Station
Few Clouds Few Clouds  
Wind Chill: 79°   Ceiling: Unl
Heat Index: 81°   Visibility: 6mi
Dew Point: 70°   Wind: 2mph
Humidity: 74%   Direction: 290°WNW
Pressure: 29.91"   Gusts: NA
Location:  18.15°N, 97.93°E
Report Text: VTCC 251230Z 29002KT 9999 FEW035 26/21 Q1013 A2994 NOSIG
Loading
Personal Weather Stations






























Interactive Weather Map New forecast layout! Learn more

10-Day Weather Forecast

Advertisements
Track Severe Weather on mobile